Time;durP1;ratioP1;P1;durP2;ratioP2;P2;SDS_P1;SDS_P2;PMS_P1;PMS_P2;Temp;Humidity;BMP_temperature;BMP_pressure;BME280_temperature;BME280_humidity;BME280_pressure;Samples;Min_cycle;Max_cycle;Signal;HPM_P1;HPM_P2
2022/01/13 00:00:57;;;;;;;;;;;6.00;99.90;;;;;;5070533;28;19920;-77
2022/01/13 00:03:23;;;;;;;;;;;6.00;99.90;;;;;;5070934;28;19946;-78
2022/01/13 00:05:49;;;;;;;;;;;6.00;99.90;;;;;;5070763;28;19920;-78
2022/01/13 00:08:14;;;;;;;;;;;6.00;99.90;;;;;;5053787;28;19932;-78
2022/01/13 00:10:40;;;;;;;;;;;6.00;99.90;;;;;;5070497;28;20007;-79
2022/01/13 00:13:08;;;;;;;;;;;6.00;99.90;;;;;;5054078;28;19920;-78
2022/01/13 00:18:09;;;;;;;;;;;6.00;99.90;;;;;;5051959;28;20330;-78
2022/01/13 00:21:00;;;;;;;;;;;6.00;99.90;;;;;;5033571;28;19921;-78
2022/01/13 00:26:16;;;;;;;;;;;6.00;99.90;;;;;;5083436;28;19920;-78
2022/01/13 00:28:47;;;;;;;;;;;6.00;99.90;;;;;;5050058;28;20295;-77
2022/01/13 00:31:13;;;;;;;;;;;6.00;99.90;;;;;;5049464;28;19946;-78
2022/01/13 00:33:44;;;;;;;;;;;5.90;99.90;;;;;;5049265;28;19921;-78
2022/01/13 00:36:09;;;;;;;;;;;5.90;99.90;;;;;;5049792;28;19921;-78
2022/01/13 00:38:35;;;;;;;;;;;5.90;99.90;;;;;;5049566;28;19921;-78
2022/01/13 00:41:00;;;;;;;;;;;5.90;99.90;;;;;;5051014;28;19925;-78
2022/01/13 00:43:26;;;;;;;;;;;5.90;99.90;;;;;;5050372;28;20486;-78
2022/01/13 00:45:51;;;;;;;;;;;5.90;99.90;;;;;;5049753;28;19921;-78
2022/01/13 00:48:17;;;;;;;;;;;5.90;99.90;;;;;;5083845;28;20015;-78
2022/01/13 00:50:43;;;;;;;;;;;5.90;99.90;;;;;;5050312;28;19921;-78
2022/01/13 00:53:08;;;;;;;;;;;5.90;99.90;;;;;;5050151;28;19920;-78
2022/01/13 00:56:20;;;;;;;;;;;5.90;99.90;;;;;;5049662;28;20380;-75
2022/01/13 00:58:20;;;;;;;;;;;5.90;99.90;;;;;;5036137;28;19920;-75
2022/01/13 01:00:45;;;;;;;;;;;5.90;99.90;;;;;;5050124;28;20454;-76
2022/01/13 01:03:11;;;;;;;;;;;5.90;99.90;;;;;;5033290;28;20003;-76
2022/01/13 01:05:36;;;;;;;;;;;5.90;99.90;;;;;;5049311;28;19931;-76
2022/01/13 01:08:03;;;;;;;;;;;5.90;99.90;;;;;;5048101;28;19924;-75
2022/01/13 01:10:28;;;;;;;;;;;5.90;99.90;;;;;;5032121;28;19925;-75
2022/01/13 01:12:54;;;;;;;;;;;5.90;99.90;;;;;;5048898;28;19928;-76
2022/01/13 01:15:19;;;;;;;;;;;5.90;99.90;;;;;;5048767;28;19924;-76
2022/01/13 01:17:50;;;;;;;;;;;5.90;99.90;;;;;;5049767;28;20268;-75
2022/01/13 01:20:16;;;;;;;;;;;5.80;99.90;;;;;;5048669;28;19921;-76
2022/01/13 01:22:56;;;;;;;;;;;5.80;99.90;;;;;;5048424;28;19931;-76
2022/01/13 01:27:56;;;;;;;;;;;5.80;99.90;;;;;;5049306;28;20448;-76
2022/01/13 01:32:48;;;;;;;;;;;5.70;99.90;;;;;;5050183;28;19935;-76
2022/01/13 01:35:15;;;;;;;;;;;5.70;99.90;;;;;;5048347;28;20306;-75
2022/01/13 01:37:41;;;;;;;;;;;5.70;99.90;;;;;;5048447;28;19929;-76
2022/01/13 01:40:07;;;;;;;;;;;5.70;99.90;;;;;;5048135;28;19925;-76
2022/01/13 01:42:33;;;;;;;;;;;5.70;99.90;;;;;;5048776;28;21216;-76
2022/01/13 01:45:00;;;;;;;;;;;5.70;99.90;;;;;;5049124;28;19920;-76
2022/01/13 01:47:27;;;;;;;;;;;5.70;99.90;;;;;;5049010;28;19927;-76
2022/01/13 01:49:56;;;;;;;;;;;5.70;99.90;;;;;;5048801;28;20003;-76
2022/01/13 01:52:21;;;;;;;;;;;5.70;99.90;;;;;;5048699;28;20295;-75
2022/01/13 01:54:48;;;;;;;;;;;5.70;99.90;;;;;;5032161;28;19921;-76
2022/01/13 01:57:14;;;;;;;;;;;5.70;99.90;;;;;;5031860;28;20652;-75
2022/01/13 01:59:41;;;;;;;;;;;5.70;99.90;;;;;;5048246;28;19924;-76
2022/01/13 02:02:07;;;;;;;;;;;5.70;99.90;;;;;;5048240;28;19959;-75
2022/01/13 02:04:33;;;;;;;;;;;5.70;99.90;;;;;;5047531;28;19967;-76
2022/01/13 02:07:07;;;;;;;;;;;5.60;99.90;;;;;;5048000;28;19924;-76
2022/01/13 02:09:35;;;;;;;;;;;5.60;99.90;;;;;;5030929;28;19920;-76
2022/01/13 02:12:06;;;;;;;;;;;5.60;99.90;;;;;;5064547;28;20019;-75
2022/01/13 02:14:46;;;;;;;;;;;5.60;99.90;;;;;;5047786;28;19921;-76
2022/01/13 02:17:15;;;;;;;;;;;5.60;99.90;;;;;;5048092;28;19924;-76
2022/01/13 02:19:42;;;;;;;;;;;5.60;99.90;;;;;;5047695;28;19976;-75
2022/01/13 02:22:07;;;;;;;;;;;5.60;99.90;;;;;;5047756;28;19967;-76
2022/01/13 02:24:34;;;;;;;;;;;5.60;99.90;;;;;;5047599;28;20401;-75
2022/01/13 02:27:00;;;;;;;;;;;5.60;99.90;;;;;;5047136;28;19995;-76
2022/01/13 02:29:25;;;;;;;;;;;5.60;99.90;;;;;;5047173;28;20449;-75
2022/01/13 02:31:52;;;;;;;;;;;5.70;99.90;;;;;;5047911;28;19943;-76
2022/01/13 02:34:18;;;;;;;;;;;5.60;99.90;;;;;;5047463;28;19920;-75
2022/01/13 02:36:44;;;;;;;;;;;5.60;99.90;;;;;;5046922;28;19921;-76
2022/01/13 02:39:09;;;;;;;;;;;5.60;99.90;;;;;;5047171;28;20531;-76
2022/01/13 02:41:35;;;;;;;;;;;5.70;99.90;;;;;;5047753;28;20337;-76
2022/01/13 02:44:02;;;;;;;;;;;5.60;99.90;;;;;;5047427;28;20366;-76
2022/01/13 02:49:07;;;;;;;;;;;5.60;99.90;;;;;;5048695;28;19921;-75
2022/01/13 02:51:32;;;;;;;;;;;5.60;99.90;;;;;;5048612;28;20295;-76
2022/01/13 02:53:58;;;;;;;;;;;5.60;99.90;;;;;;5047196;28;20007;-76
2022/01/13 02:56:24;;;;;;;;;;;5.60;99.90;;;;;;5047431;28;19974;-76
2022/01/13 02:58:49;;;;;;;;;;;5.60;99.90;;;;;;5064208;28;19928;-76
2022/01/13 03:01:15;;;;;;;;;;;5.60;99.90;;;;;;5048352;28;19921;-76
2022/01/13 03:03:42;;;;;;;;;;;5.60;99.90;;;;;;5047641;28;20426;-76
2022/01/13 03:06:15;;;;;;;;;;;5.60;99.90;;;;;;5048297;28;20355;-76
2022/01/13 03:08:45;;;;;;;;;;;5.60;99.90;;;;;;5048166;28;19976;-76
2022/01/13 03:11:11;;;;;;;;;;;5.60;99.90;;;;;;5065886;28;19970;-76
2022/01/13 03:13:36;;;;;;;;;;;5.60;99.90;;;;;;5067998;28;19924;-75
2022/01/13 03:16:06;;;;;;;;;;;5.60;99.90;;;;;;5047953;28;20011;-75
2022/01/13 03:18:31;;;;;;;;;;;5.60;99.90;;;;;;5031598;28;20019;-76
2022/01/13 03:20:57;;;;;;;;;;;5.60;99.90;;;;;;5047727;28;20011;-76
2022/01/13 03:23:22;;;;;;;;;;;5.60;99.90;;;;;;5048548;28;19924;-76
2022/01/13 03:25:48;;;;;;;;;;;5.60;99.90;;;;;;5048174;28;20438;-76
2022/01/13 03:28:28;;;;;;;;;;;5.60;99.90;;;;;;5049193;28;19975;-76
2022/01/13 03:30:53;;;;;;;;;;;5.60;99.90;;;;;;5051455;28;19943;-76
2022/01/13 03:33:19;;;;;;;;;;;5.60;99.90;;;;;;5085097;28;19925;-76
2022/01/13 03:35:44;;;;;;;;;;;5.60;99.90;;;;;;5034617;28;19925;-76
2022/01/13 03:38:10;;;;;;;;;;;5.60;99.90;;;;;;5051606;28;20027;-76
2022/01/13 03:40:36;;;;;;;;;;;5.70;99.90;;;;;;5034068;28;19921;-76
2022/01/13 03:43:02;;;;;;;;;;;5.60;99.90;;;;;;5084617;28;19928;-76
2022/01/13 03:45:28;;;;;;;;;;;5.70;99.90;;;;;;5051074;28;19925;-76
2022/01/13 03:47:54;;;;;;;;;;;5.70;99.90;;;;;;5051127;28;20041;-76
2022/01/13 03:50:20;;;;;;;;;;;5.70;99.90;;;;;;5052115;28;20071;-76
2022/01/13 03:53:03;;;;;;;;;;;5.70;99.90;;;;;;5051939;28;19928;-76
2022/01/13 03:55:29;;;;;;;;;;;5.70;99.90;;;;;;5051288;28;20372;-76
2022/01/13 03:58:13;;;;;;;;;;;5.70;99.90;;;;;;5050658;28;20020;-75
2022/01/13 04:01:07;;;;;;;;;;;5.70;99.90;;;;;;5050820;28;19925;-76
2022/01/13 04:03:33;;;;;;;;;;;5.80;99.90;;;;;;5050859;28;19928;-78
2022/01/13 04:06:24;;;;;;;;;;;5.80;99.90;;;;;;5051120;28;20720;-76
2022/01/13 04:08:49;;;;;;;;;;;5.80;99.90;;;;;;5067691;28;20004;-76
2022/01/13 04:11:25;;;;;;;;;;;5.80;99.90;;;;;;5054563;28;20039;-76
2022/01/13 04:14:00;;;;;;;;;;;5.80;99.90;;;;;;5070702;28;20409;-76
2022/01/13 04:16:27;;;;;;;;;;;5.80;99.90;;;;;;5053804;28;20398;-75
2022/01/13 04:18:55;;;;;;;;;;;5.80;99.90;;;;;;5071064;28;19924;-76
2022/01/13 04:21:21;;;;;;;;;;;5.80;99.90;;;;;;5070691;28;20386;-76
2022/01/13 04:23:47;;;;;;;;;;;5.80;99.90;;;;;;5071696;28;19925;-77
2022/01/13 04:26:15;;;;;;;;;;;5.80;99.90;;;;;;5070212;28;20021;-78
2022/01/13 04:28:41;;;;;;;;;;;5.80;99.90;;;;;;5063212;28;19960;-78
2022/01/13 04:31:06;;;;;;;;;;;5.80;99.90;;;;;;5050583;28;19972;-78
2022/01/13 04:33:36;;;;;;;;;;;5.80;99.90;;;;;;5050369;28;19920;-78
2022/01/13 04:36:03;;;;;;;;;;;5.90;99.90;;;;;;5050831;28;19920;-79
2022/01/13 04:38:28;;;;;;;;;;;5.80;99.90;;;;;;5050872;28;19925;-78
2022/01/13 04:40:59;;;;;;;;;;;5.80;99.90;;;;;;5049863;28;19921;-78
2022/01/13 04:43:26;;;;;;;;;;;5.80;99.90;;;;;;5033810;28;19928;-78
2022/01/13 04:45:52;;;;;;;;;;;5.80;99.90;;;;;;5051935;28;19929;-78
2022/01/13 04:48:18;;;;;;;;;;;5.80;99.90;;;;;;5050088;28;19921;-79
2022/01/13 04:50:44;;;;;;;;;;;5.80;99.90;;;;;;5050122;28;20018;-79
2022/01/13 04:53:10;;;;;;;;;;;5.80;99.90;;;;;;5033524;28;20024;-79
2022/01/13 04:55:37;;;;;;;;;;;5.80;99.90;;;;;;5050237;28;19921;-78
2022/01/13 04:58:03;;;;;;;;;;;5.80;99.90;;;;;;5033192;28;19924;-78
2022/01/13 05:00:29;;;;;;;;;;;5.80;99.90;;;;;;5050406;28;20338;-79
2022/01/13 05:02:55;;;;;;;;;;;5.80;99.90;;;;;;5049542;28;19927;-78
2022/01/13 05:05:21;;;;;;;;;;;5.80;99.90;;;;;;5049761;28;19921;-79
2022/01/13 05:07:47;;;;;;;;;;;5.80;99.90;;;;;;5050078;28;19921;-79
2022/01/13 05:10:12;;;;;;;;;;;5.80;99.90;;;;;;5049076;28;19928;-78
2022/01/13 05:12:43;;;;;;;;;;;5.80;99.90;;;;;;5049603;28;19921;-78
2022/01/13 05:15:13;;;;;;;;;;;5.80;99.90;;;;;;5049904;28;19932;-79
2022/01/13 05:20:15;;;;;;;;;;;5.80;99.90;;;;;;5065754;28;19920;-79
2022/01/13 05:22:41;;;;;;;;;;;5.80;99.90;;;;;;5048495;28;20461;-79
2022/01/13 05:25:07;;;;;;;;;;;5.80;99.90;;;;;;5048417;28;19921;-78
2022/01/13 05:27:32;;;;;;;;;;;5.80;99.90;;;;;;5048532;28;20383;-79
2022/01/13 05:30:01;;;;;;;;;;;5.80;99.90;;;;;;5048345;28;20272;-78
2022/01/13 05:32:26;;;;;;;;;;;5.80;99.90;;;;;;5048563;28;20051;-79
2022/01/13 05:34:52;;;;;;;;;;;5.80;99.90;;;;;;5048480;28;20007;-79
2022/01/13 05:37:17;;;;;;;;;;;5.80;99.90;;;;;;5048203;28;19920;-78
2022/01/13 05:39:42;;;;;;;;;;;5.80;99.90;;;;;;5048683;28;19920;-78
2022/01/13 05:42:08;;;;;;;;;;;5.80;99.90;;;;;;5048450;28;19924;-78
2022/01/13 05:44:38;;;;;;;;;;;5.80;99.90;;;;;;5048373;28;19925;-79
2022/01/13 05:47:09;;;;;;;;;;;5.80;99.90;;;;;;5047600;28;19924;-78
2022/01/13 05:49:35;;;;;;;;;;;5.80;99.90;;;;;;5048094;28;20371;-79
2022/01/13 05:52:01;;;;;;;;;;;5.80;99.90;;;;;;5047464;28;19946;-79
2022/01/13 05:54:26;;;;;;;;;;;5.90;99.90;;;;;;5049623;28;19925;-78
2022/01/13 05:56:52;;;;;;;;;;;5.80;99.90;;;;;;5048019;28;20058;-79
2022/01/13 05:59:19;;;;;;;;;;;5.90;99.90;;;;;;5048270;28;20015;-78
2022/01/13 06:01:44;;;;;;;;;;;5.90;99.90;;;;;;5047863;28;19924;-78
2022/01/13 06:04:10;;;;;;;;;;;5.90;99.90;;;;;;5047966;28;20058;-79
2022/01/13 06:06:35;;;;;;;;;;;5.90;99.90;;;;;;5047755;28;20003;-79
2022/01/13 06:09:01;;;;;;;;;;;5.90;99.90;;;;;;5048580;28;20022;-79
2022/01/13 06:11:36;;;;;;;;;;;5.90;99.90;;;;;;5071387;28;19949;-79
2022/01/13 06:14:02;;;;;;;;;;;5.90;99.90;;;;;;5072539;28;19920;-78
2022/01/13 06:16:27;;;;;;;;;;;5.90;99.90;;;;;;5072266;28;19923;-78
2022/01/13 06:18:53;;;;;;;;;;;5.90;99.90;;;;;;5071767;28;19920;-78
2022/01/13 06:21:18;;;;;;;;;;;6.00;99.90;;;;;;5072254;28;19924;-78
2022/01/13 06:23:44;;;;;;;;;;;6.00;99.90;;;;;;5072167;28;19920;-78
2022/01/13 06:26:09;;;;;;;;;;;6.00;99.90;;;;;;5072278;28;19920;-78
2022/01/13 06:28:35;;;;;;;;;;;6.00;99.90;;;;;;5071410;28;20381;-78
2022/01/13 06:31:00;;;;;;;;;;;6.00;99.90;;;;;;5072068;28;19920;-77
2022/01/13 06:33:26;;;;;;;;;;;6.00;99.90;;;;;;5071857;28;19974;-78
2022/01/13 06:35:52;;;;;;;;;;;6.00;99.90;;;;;;5055113;28;19924;-78
2022/01/13 06:38:18;;;;;;;;;;;6.00;99.90;;;;;;5071994;28;19970;-78
2022/01/13 06:40:44;;;;;;;;;;;6.00;99.90;;;;;;5071366;28;19926;-78
2022/01/13 06:43:09;;;;;;;;;;;6.00;99.90;;;;;;5072126;28;19920;-77
2022/01/13 06:45:35;;;;;;;;;;;6.10;99.90;;;;;;5071821;28;19920;-76
2022/01/13 06:48:00;;;;;;;;;;;6.10;99.90;;;;;;5089670;28;19932;-75
2022/01/13 06:50:26;;;;;;;;;;;6.10;99.90;;;;;;5089397;28;20309;-75
2022/01/13 06:52:51;;;;;;;;;;;6.10;99.90;;;;;;5074168;28;19920;-76
2022/01/13 06:55:17;;;;;;;;;;;6.10;99.90;;;;;;5076934;28;19920;-76
2022/01/13 06:57:42;;;;;;;;;;;6.10;99.90;;;;;;5071540;28;19924;-76
2022/01/13 07:00:08;;;;;;;;;;;6.20;99.90;;;;;;5070913;28;19931;-76
2022/01/13 07:02:34;;;;;;;;;;;6.20;99.90;;;;;;5055749;28;19924;-76
2022/01/13 07:05:00;;;;;;;;;;;6.20;99.90;;;;;;5093834;28;19923;-77
2022/01/13 07:07:25;;;;;;;;;;;6.20;99.90;;;;;;5071868;28;19920;-76
2022/01/13 07:09:51;;;;;;;;;;;6.20;99.90;;;;;;5059801;28;20424;-76
2022/01/13 07:12:16;;;;;;;;;;;6.20;99.90;;;;;;5074629;28;19920;-77
2022/01/13 07:14:42;;;;;;;;;;;6.20;99.90;;;;;;5093756;28;19920;-74
2022/01/13 07:17:07;;;;;;;;;;;6.20;99.90;;;;;;5091785;28;20352;-74
2022/01/13 07:19:33;;;;;;;;;;;6.20;99.90;;;;;;5074129;28;20049;-74
2022/01/13 07:21:58;;;;;;;;;;;6.20;99.90;;;;;;5084377;28;20304;-76
2022/01/13 07:24:24;;;;;;;;;;;6.20;99.90;;;;;;5093296;28;19923;-77
2022/01/13 07:26:50;;;;;;;;;;;6.20;99.90;;;;;;5090194;28;20309;-76
2022/01/13 07:29:15;;;;;;;;;;;6.20;99.90;;;;;;5092896;28;20589;-77
2022/01/13 07:31:41;;;;;;;;;;;6.20;99.90;;;;;;5074849;28;19920;-77
2022/01/13 07:34:06;;;;;;;;;;;6.20;99.90;;;;;;5073233;28;19924;-77
2022/01/13 07:36:32;;;;;;;;;;;6.20;99.90;;;;;;5073968;28;19964;-77
2022/01/13 07:38:58;;;;;;;;;;;6.20;99.90;;;;;;5060404;28;19924;-77
2022/01/13 07:41:23;;;;;;;;;;;6.20;99.90;;;;;;5069143;28;20286;-76
2022/01/13 07:43:54;;;;;;;;;;;6.20;99.90;;;;;;5061548;28;19965;-76
2022/01/13 07:46:20;;;;;;;;;;;6.20;99.90;;;;;;5074492;28;19924;-77
2022/01/13 07:48:46;;;;;;;;;;;6.20;99.90;;;;;;5063217;28;19920;-77
2022/01/13 07:51:11;;;;;;;;;;;6.20;99.90;;;;;;5085577;28;19945;-77
2022/01/13 07:53:37;;;;;;;;;;;6.20;99.90;;;;;;5073635;28;19931;-77
2022/01/13 07:56:03;;;;;;;;;;;6.30;99.90;;;;;;5073194;28;19927;-77
2022/01/13 07:58:29;;;;;;;;;;;6.30;99.90;;;;;;5073480;28;19920;-77
2022/01/13 08:00:54;;;;;;;;;;;6.30;99.90;;;;;;5073042;28;19927;-77
2022/01/13 08:03:20;;;;;;;;;;;6.30;99.90;;;;;;5061693;28;19920;-77
2022/01/13 08:05:45;;;;;;;;;;;6.30;99.90;;;;;;5036867;28;19920;-77
2022/01/13 08:08:11;;;;;;;;;;;6.30;99.90;;;;;;5053634;28;19924;-77
2022/01/13 08:10:36;;;;;;;;;;;6.30;99.90;;;;;;5053159;28;19925;-77
2022/01/13 08:13:02;;;;;;;;;;;6.30;99.90;;;;;;5053105;28;19920;-77
2022/01/13 08:15:28;;;;;;;;;;;6.30;99.90;;;;;;5051838;28;19930;-77
2022/01/13 08:20:38;;;;;;;;;;;6.30;99.90;;;;;;5053481;28;19931;-77
2022/01/13 08:23:03;;;;;;;;;;;6.40;99.90;;;;;;5053110;28;19924;-77
2022/01/13 08:25:29;;;;;;;;;;;6.40;99.90;;;;;;5053501;28;19920;-76
2022/01/13 08:27:55;;;;;;;;;;;6.40;99.90;;;;;;5052829;28;19971;-75
2022/01/13 08:30:21;;;;;;;;;;;6.50;99.90;;;;;;5052874;28;19972;-76
2022/01/13 08:32:46;;;;;;;;;;;6.50;99.90;;;;;;5053136;28;19924;-76
2022/01/13 08:35:12;;;;;;;;;;;6.50;99.90;;;;;;5053396;28;19966;-76
2022/01/13 08:37:38;;;;;;;;;;;6.50;99.90;;;;;;5055869;28;20337;-74
2022/01/13 08:40:05;;;;;;;;;;;6.50;99.90;;;;;;5072935;28;19931;-75
2022/01/13 08:42:32;;;;;;;;;;;6.50;99.90;;;;;;5066189;28;19981;-76
2022/01/13 08:44:58;;;;;;;;;;;6.50;99.90;;;;;;5073123;28;20924;-76
2022/01/13 08:47:23;;;;;;;;;;;6.50;99.90;;;;;;5071078;28;19927;-76
2022/01/13 08:49:49;;;;;;;;;;;6.50;99.90;;;;;;5090492;28;19920;-76
2022/01/13 08:52:15;;;;;;;;;;;6.50;99.90;;;;;;5067485;28;19991;-75
2022/01/13 08:54:45;;;;;;;;;;;6.50;99.90;;;;;;5078817;28;20007;-75
2022/01/13 08:57:10;;;;;;;;;;;6.50;99.90;;;;;;5052544;28;19921;-76
2022/01/13 08:59:36;;;;;;;;;;;6.60;99.90;;;;;;5052433;28;19946;-76
2022/01/13 09:02:01;;;;;;;;;;;6.60;99.90;;;;;;5053388;28;20365;-75
2022/01/13 09:04:27;;;;;;;;;;;6.60;99.90;;;;;;5088713;28;20439;-75
2022/01/13 09:06:52;;;;;;;;;;;6.60;99.90;;;;;;5072343;28;19927;-76
2022/01/13 09:09:18;;;;;;;;;;;6.60;99.90;;;;;;5070482;28;19927;-76
2022/01/13 09:11:44;;;;;;;;;;;6.60;99.90;;;;;;5072302;28;19924;-76
2022/01/13 09:14:09;;;;;;;;;;;6.60;99.90;;;;;;5070218;28;19927;-75
2022/01/13 09:16:42;;;;;;;;;;;6.60;99.90;;;;;;5072067;28;19920;-76
2022/01/13 09:19:08;;;;;;;;;;;6.60;99.90;;;;;;5067530;28;19925;-76
2022/01/13 09:21:37;;;;;;;;;;;6.60;99.90;;;;;;5060321;28;19924;-76
2022/01/13 09:24:03;;;;;;;;;;;6.60;99.90;;;;;;5069920;28;19920;-75
2022/01/13 09:26:28;;;;;;;;;;;6.60;99.90;;;;;;5066990;28;19978;-75
2022/01/13 09:28:54;;;;;;;;;;;6.60;99.90;;;;;;5069592;28;19927;-75
2022/01/13 09:31:19;;;;;;;;;;;6.60;99.90;;;;;;5052113;28;19924;-75
2022/01/13 09:33:45;;;;;;;;;;;6.60;99.90;;;;;;5052755;28;19920;-76
2022/01/13 09:36:11;;;;;;;;;;;6.70;99.90;;;;;;5069721;28;19930;-76
2022/01/13 09:38:36;;;;;;;;;;;6.70;99.90;;;;;;5069269;28;20576;-75
2022/01/13 09:41:02;;;;;;;;;;;6.70;99.90;;;;;;5068867;28;19964;-76
2022/01/13 09:43:28;;;;;;;;;;;6.70;99.90;;;;;;5068708;28;19975;-75
2022/01/13 09:45:55;;;;;;;;;;;6.70;99.90;;;;;;5072440;28;19927;-76
2022/01/13 09:48:20;;;;;;;;;;;6.70;99.90;;;;;;5072792;28;19931;-75
2022/01/13 09:50:46;;;;;;;;;;;6.70;99.90;;;;;;5072665;28;20299;-76
2022/01/13 09:53:16;;;;;;;;;;;6.70;99.90;;;;;;5072121;28;19920;-76
2022/01/13 09:55:42;;;;;;;;;;;6.70;99.90;;;;;;5068561;28;20038;-75
2022/01/13 09:58:10;;;;;;;;;;;6.80;99.90;;;;;;5069371;28;19919;-76
2022/01/13 10:00:40;;;;;;;;;;;6.80;99.90;;;;;;5069140;28;20003;-76
2022/01/13 10:03:16;;;;;;;;;;;6.80;99.90;;;;;;5071646;28;19920;-76
2022/01/13 10:05:49;;;;;;;;;;;6.80;99.90;;;;;;5069206;28;20011;-76
2022/01/13 10:08:14;;;;;;;;;;;6.80;99.90;;;;;;5072173;28;19920;-76
2022/01/13 10:10:40;;;;;;;;;;;6.80;99.90;;;;;;5071942;28;20396;-75
2022/01/13 10:13:10;;;;;;;;;;;6.80;99.90;;;;;;5070670;28;19927;-76
2022/01/13 10:18:46;;;;;;;;;;;6.90;99.90;;;;;;5072153;28;19924;-75
2022/01/13 10:21:16;;;;;;;;;;;6.90;99.90;;;;;;5067744;28;19920;-76
2022/01/13 10:24:00;;;;;;;;;;;6.90;99.90;;;;;;5059624;28;20345;-76
2022/01/13 10:26:26;;;;;;;;;;;6.90;99.90;;;;;;5089211;28;19927;-76
2022/01/13 10:28:52;;;;;;;;;;;6.90;99.90;;;;;;5071967;28;19931;-75
2022/01/13 10:31:18;;;;;;;;;;;6.90;99.90;;;;;;5072066;28;20007;-76
2022/01/13 10:33:43;;;;;;;;;;;6.90;99.90;;;;;;5071591;28;20015;-76
2022/01/13 10:36:10;;;;;;;;;;;6.90;99.90;;;;;;5071113;28;19923;-76
2022/01/13 10:38:55;;;;;;;;;;;6.90;99.90;;;;;;5072001;28;19927;-76
2022/01/13 10:41:29;;;;;;;;;;;6.90;99.90;;;;;;5058787;28;19971;-75
2022/01/13 10:44:11;;;;;;;;;;;6.90;99.90;;;;;;5077126;28;20378;-74
2022/01/13 10:46:55;;;;;;;;;;;6.80;99.90;;;;;;5078607;28;19926;-73
2022/01/13 10:49:29;;;;;;;;;;;6.80;99.90;;;;;;5074776;28;20461;-74
2022/01/13 10:52:14;;;;;;;;;;;6.80;99.90;;;;;;5075024;28;19966;-74
2022/01/13 10:54:39;;;;;;;;;;;6.80;99.90;;;;;;5078064;28;20382;-74
2022/01/13 10:57:19;;;;;;;;;;;6.80;99.90;;;;;;5078064;28;19919;-74
2022/01/13 10:59:45;;;;;;;;;;;6.80;99.90;;;;;;5087601;28;19920;-75
2022/01/13 11:02:10;;;;;;;;;;;6.80;99.90;;;;;;5078536;28;19966;-75
2022/01/13 11:04:36;;;;;;;;;;;6.80;99.90;;;;;;5077007;28;20413;-75
2022/01/13 11:07:15;;;;;;;;;;;6.80;99.90;;;;;;5096641;28;19926;-74
2022/01/13 11:09:43;;;;;;;;;;;6.80;99.90;;;;;;5074479;28;19930;-75
2022/01/13 11:12:10;;;;;;;;;;;6.80;99.90;;;;;;5074900;28;19928;-75
2022/01/13 11:14:41;;;;;;;;;;;6.80;99.90;;;;;;5074408;28;19920;-75
2022/01/13 11:17:07;;;;;;;;;;;6.90;99.90;;;;;;5075730;28;19920;-75
2022/01/13 11:19:33;;;;;;;;;;;6.90;99.90;;;;;;5058355;28;20264;-75
2022/01/13 11:21:59;;;;;;;;;;;6.90;99.90;;;;;;5075959;28;19964;-75
2022/01/13 11:24:24;;;;;;;;;;;6.80;99.90;;;;;;5074553;28;20375;-75
2022/01/13 11:26:50;;;;;;;;;;;6.90;99.90;;;;;;5074452;28;19920;-75
2022/01/13 11:29:17;;;;;;;;;;;6.90;99.90;;;;;;5075040;28;19945;-76
2022/01/13 11:31:43;;;;;;;;;;;6.90;99.90;;;;;;5051160;28;19925;-75
2022/01/13 11:34:09;;;;;;;;;;;6.90;99.90;;;;;;5056115;28;19951;-75
2022/01/13 11:36:34;;;;;;;;;;;6.90;99.90;;;;;;5075401;28;20298;-75
2022/01/13 11:39:01;;;;;;;;;;;6.90;99.90;;;;;;5075966;28;19920;-75
2022/01/13 11:41:27;;;;;;;;;;;6.90;99.90;;;;;;5073283;28;19921;-75
2022/01/13 11:43:53;;;;;;;;;;;6.90;99.90;;;;;;5073859;28;19985;-74
2022/01/13 11:46:21;;;;;;;;;;;6.90;99.90;;;;;;5074106;28;19974;-74
2022/01/13 11:48:53;;;;;;;;;;;6.90;99.90;;;;;;5063934;28;19925;-75
2022/01/13 11:51:20;;;;;;;;;;;6.90;99.90;;;;;;5065648;28;19936;-75
2022/01/13 11:53:54;;;;;;;;;;;6.90;99.90;;;;;;5050325;28;19920;-75
2022/01/13 11:56:20;;;;;;;;;;;6.90;99.90;;;;;;5061428;28;19924;-75
2022/01/13 11:58:46;;;;;;;;;;;6.90;99.90;;;;;;5065916;28;19981;-75
2022/01/13 12:01:23;;;;;;;;;;;6.90;99.90;;;;;;5063013;28;19920;-75
2022/01/13 12:03:50;;;;;;;;;;;6.90;99.90;;;;;;5067818;28;19938;-75
2022/01/13 12:06:31;;;;;;;;;;;7.00;99.90;;;;;;5070156;28;19966;-75
2022/01/13 12:08:58;;;;;;;;;;;6.90;99.90;;;;;;5067656;28;19932;-75
2022/01/13 12:11:38;;;;;;;;;;;7.00;99.90;;;;;;5080388;28;19920;-75
2022/01/13 12:14:22;;;;;;;;;;;7.00;99.90;;;;;;5073650;28;19923;-75
2022/01/13 12:16:56;;;;;;;;;;;7.00;99.90;;;;;;5072358;28;19966;-76
2022/01/13 12:19:34;;;;;;;;;;;7.00;99.90;;;;;;5053159;28;19924;-76
2022/01/13 12:22:03;;;;;;;;;;;7.00;99.90;;;;;;5059142;28;20441;-75
2022/01/13 12:24:46;;;;;;;;;;;7.00;99.90;;;;;;5072986;28;19924;-75
2022/01/13 12:27:11;;;;;;;;;;;7.00;99.90;;;;;;5073010;28;19920;-75
2022/01/13 12:29:44;;;;;;;;;;;7.10;99.90;;;;;;5056509;28;19931;-75
2022/01/13 12:32:10;;;;;;;;;;;7.10;99.90;;;;;;5078707;28;19921;-75
2022/01/13 12:34:36;;;;;;;;;;;7.10;99.90;;;;;;5069313;28;19920;-75
2022/01/13 12:37:21;;;;;;;;;;;7.10;99.90;;;;;;5071671;28;19924;-76
2022/01/13 12:39:58;;;;;;;;;;;7.10;99.90;;;;;;5089148;28;19963;-75
2022/01/13 12:42:27;;;;;;;;;;;7.10;99.90;;;;;;5071596;28;19927;-75
2022/01/13 12:47:37;;;;;;;;;;;7.10;99.90;;;;;;5055796;28;19962;-75
2022/01/13 12:50:14;;;;;;;;;;;7.10;99.90;;;;;;5088557;28;20390;-75
2022/01/13 12:52:39;;;;;;;;;;;7.10;99.90;;;;;;5072078;28;19930;-75
2022/01/13 12:55:05;;;;;;;;;;;7.10;99.90;;;;;;5072144;28;19920;-76
2022/01/13 12:57:30;;;;;;;;;;;7.20;99.90;;;;;;5071567;28;20043;-75
2022/01/13 12:59:59;;;;;;;;;;;7.20;99.90;;;;;;5071604;28;19924;-75
2022/01/13 13:02:24;;;;;;;;;;;7.20;99.90;;;;;;5089247;28;19920;-75
2022/01/13 13:04:50;;;;;;;;;;;7.20;99.90;;;;;;5090184;28;20421;-75
2022/01/13 13:07:16;;;;;;;;;;;7.30;99.90;;;;;;5090841;28;20863;-75
2022/01/13 13:09:41;;;;;;;;;;;7.30;99.90;;;;;;5088384;28;19966;-75
2022/01/13 13:12:11;;;;;;;;;;;7.30;99.90;;;;;;5075939;28;20449;-75
2022/01/13 13:17:41;;;;;;;;;;;7.30;99.90;;;;;;5068718;28;20606;-75
2022/01/13 13:20:07;;;;;;;;;;;7.40;99.90;;;;;;5070827;28;19969;-75
2022/01/13 13:22:45;;;;;;;;;;;7.40;99.90;;;;;;5068580;28;20371;-75
2022/01/13 13:25:11;;;;;;;;;;;7.40;99.90;;;;;;5071022;28;19931;-75
2022/01/13 13:27:37;;;;;;;;;;;7.40;99.90;;;;;;5072388;28;19923;-75
2022/01/13 13:30:03;;;;;;;;;;;7.50;99.90;;;;;;5067881;28;20263;-75
2022/01/13 13:32:29;;;;;;;;;;;7.50;99.90;;;;;;5084451;28;20673;-75
2022/01/13 13:34:54;;;;;;;;;;;7.50;99.90;;;;;;5090060;28;19921;-75
2022/01/13 13:37:20;;;;;;;;;;;7.50;99.90;;;;;;5072017;28;19923;-75
2022/01/13 13:39:46;;;;;;;;;;;7.50;99.90;;;;;;5071374;28;20386;-75
2022/01/13 13:42:13;;;;;;;;;;;7.50;99.90;;;;;;5089560;28;20003;-75
2022/01/13 13:44:41;;;;;;;;;;;7.60;99.90;;;;;;5090748;28;19934;-75
2022/01/13 13:47:18;;;;;;;;;;;7.60;99.90;;;;;;5068989;28;19924;-75
2022/01/13 13:49:57;;;;;;;;;;;7.60;99.90;;;;;;5071385;28;20013;-75
2022/01/13 13:52:23;;;;;;;;;;;7.60;99.90;;;;;;5069510;28;19980;-75
2022/01/13 13:54:52;;;;;;;;;;;7.60;99.90;;;;;;5070487;28;20007;-75
2022/01/13 13:57:19;;;;;;;;;;;7.70;99.90;;;;;;5083231;28;19926;-75
2022/01/13 13:59:52;;;;;;;;;;;7.70;99.90;;;;;;5088872;28;19926;-75
2022/01/13 14:02:25;;;;;;;;;;;7.90;99.90;;;;;;5087227;28;19966;-75
2022/01/13 14:04:50;;;;;;;;;;;7.90;99.90;;;;;;5069264;28;20257;-75
2022/01/13 14:07:28;;;;;;;;;;;7.90;99.90;;;;;;5069775;28;19969;-75
2022/01/13 14:09:55;;;;;;;;;;;8.00;99.90;;;;;;5055261;28;19973;-75
2022/01/13 14:12:28;;;;;;;;;;;8.00;99.90;;;;;;5071359;28;19931;-76
2022/01/13 14:14:53;;;;;;;;;;;8.00;99.90;;;;;;5078532;28;20378;-75
2022/01/13 14:17:31;;;;;;;;;;;8.00;99.90;;;;;;5052362;28;19935;-75
2022/01/13 14:20:02;;;;;;;;;;;8.00;99.90;;;;;;5077874;28;19920;-75
2022/01/13 14:22:28;;;;;;;;;;;8.00;99.90;;;;;;5090317;28;19923;-75
2022/01/13 14:24:53;;;;;;;;;;;7.90;99.90;;;;;;5061380;28;20008;-75
2022/01/13 14:27:19;;;;;;;;;;;8.00;99.90;;;;;;5035461;28;19928;-75
2022/01/13 14:29:49;;;;;;;;;;;7.90;99.90;;;;;;5052200;28;19982;-75
2022/01/13 14:32:22;;;;;;;;;;;7.90;99.90;;;;;;5052209;28;20387;-75
2022/01/13 14:34:49;;;;;;;;;;;7.90;99.90;;;;;;5070008;28;19928;-75
2022/01/13 14:37:15;;;;;;;;;;;7.80;99.90;;;;;;5064414;28;19999;-75
2022/01/13 14:39:40;;;;;;;;;;;7.80;99.90;;;;;;5071464;28;20401;-75
2022/01/13 14:42:26;;;;;;;;;;;7.80;99.90;;;;;;5071781;28;19920;-75
2022/01/13 14:45:11;;;;;;;;;;;7.80;99.90;;;;;;5072205;28;20293;-75
2022/01/13 14:47:37;;;;;;;;;;;7.70;99.90;;;;;;5067183;28;19924;-74
2022/01/13 14:50:03;;;;;;;;;;;7.70;99.90;;;;;;5051424;28;19926;-74
2022/01/13 14:52:28;;;;;;;;;;;7.70;99.90;;;;;;5068013;28;19927;-74
2022/01/13 14:54:55;;;;;;;;;;;7.70;99.90;;;;;;5068261;28;20355;-75
2022/01/13 14:57:20;;;;;;;;;;;7.70;99.90;;;;;;5067938;28;20023;-75
2022/01/13 14:59:46;;;;;;;;;;;7.70;99.90;;;;;;5068621;28;20011;-75
2022/01/13 15:02:12;;;;;;;;;;;7.60;99.90;;;;;;5068801;28;20301;-75